Alfa Twilight — 9HTM9 — position and weather

sailwx.info

Track history (hours):
 
Tides and Currents Weather Stations Pressure Air Temp Water Temp Dewpoint Dewpoint Depression Visibility Wind Speed Wind Dir Waves Ship Positions

Alfa Twilight

Last reported at 2018-Jan-21 16:48 UTC. Time now 2018-Jan-21 18:49 UTC.
Position N 40°44' E 028°55'.

Length 99 m; draft 6.8 m.

Type: Cargo ship. MMSI: 249530000.

Date/timePositionNaut miles runAvg speedWind from/ knotsBaromVisibWave heightAir tempDewpointWater temp
2018-Jan-21 16:48N 40°44' E 028°55'512.3
2018-Jan-21 16:25N 40°44' E 029°01'512.1
2018-Jan-21 16:00N 40°44' E 029°08'612.0
2018-Jan-21 15:30N 40°44' E 029°15'611.4
2018-Jan-21 14:58N 40°45' E 029°24'611.5
2018-Jan-21 14:28N 40°45' E 029°31'  
2018-Jan-18 03:09N 40°44' E 029°28'211.1
2018-Jan-18 03:00N 40°44' E 029°26'5 9.8
2018-Jan-18 02:29N 40°43' E 029°19'511.3
2018-Jan-18 02:00N 40°43' E 029°12'712.9
2018-Jan-18 01:29N 40°44' E 029°03'  
Track history (hours):
 
Tides and Currents Weather Stations Pressure Air Temp Water Temp Dewpoint Dewpoint Depression Visibility Wind Speed Wind Dir Waves Ship Positions

Alfa Twilight

Last reported at 2018-Jan-21 16:48 UTC. Time now 2018-Jan-21 18:49 UTC.
Position N 40°44' E 028°55'.

Length 99 m; draft 6.8 m.

Type: Cargo ship. MMSI: 249530000.

Date/timePositionNaut miles runAvg speedWind from/ knotsBaromVisibWave heightAir tempDewpointWater temp
2018-Jan-21 16:48N 40°44' E 028°55'512.3
2018-Jan-21 16:25N 40°44' E 029°01'512.1
2018-Jan-21 16:00N 40°44' E 029°08'612.0
2018-Jan-21 15:30N 40°44' E 029°15'611.4
2018-Jan-21 14:58N 40°45' E 029°24'611.5
2018-Jan-21 14:28N 40°45' E 029°31'  
2018-Jan-18 03:09N 40°44' E 029°28'211.1
2018-Jan-18 03:00N 40°44' E 029°26'5 9.8
2018-Jan-18 02:29N 40°43' E 029°19'511.3
2018-Jan-18 02:00N 40°43' E 029°12'712.9
2018-Jan-18 01:29N 40°44' E 029°03'  

Dump ship's entire track history